sensor_id;sensor_type;location;lat;lon;timestamp;temperature;humidity
67147;DHT22;70072;52.036;5.558;2024-03-29T00:01:50;17.70;61.30
67147;DHT22;70072;52.036;5.558;2024-03-29T00:04:15;17.70;61.40
67147;DHT22;70072;52.036;5.558;2024-03-29T00:06:41;17.70;61.40
67147;DHT22;70072;52.036;5.558;2024-03-29T00:09:06;17.70;61.40
67147;DHT22;70072;52.036;5.558;2024-03-29T00:11:32;17.70;61.40
67147;DHT22;70072;52.036;5.558;2024-03-29T00:13:57;17.70;61.40
67147;DHT22;70072;52.036;5.558;2024-03-29T00:16:26;17.70;61.40
67147;DHT22;70072;52.036;5.558;2024-03-29T00:18:52;17.70;61.40
67147;DHT22;70072;52.036;5.558;2024-03-29T00:21:17;17.70;61.40
67147;DHT22;70072;52.036;5.558;2024-03-29T00:23:44;17.70;61.40
67147;DHT22;70072;52.036;5.558;2024-03-29T00:26:11;17.70;61.40
67147;DHT22;70072;52.036;5.558;2024-03-29T00:28:37;17.70;61.40
67147;DHT22;70072;52.036;5.558;2024-03-29T00:31:02;17.70;61.40
67147;DHT22;70072;52.036;5.558;2024-03-29T00:33:28;17.70;61.50
67147;DHT22;70072;52.036;5.558;2024-03-29T00:35:54;17.70;61.50
67147;DHT22;70072;52.036;5.558;2024-03-29T00:38:22;17.70;61.40
67147;DHT22;70072;52.036;5.558;2024-03-29T00:40:47;17.70;61.50
67147;DHT22;70072;52.036;5.558;2024-03-29T00:43:13;17.70;61.50
67147;DHT22;70072;52.036;5.558;2024-03-29T00:45:40;17.60;61.50
67147;DHT22;70072;52.036;5.558;2024-03-29T00:48:06;17.70;61.50
67147;DHT22;70072;52.036;5.558;2024-03-29T00:50:32;17.70;61.50
67147;DHT22;70072;52.036;5.558;2024-03-29T00:52:57;17.60;61.50
67147;DHT22;70072;52.036;5.558;2024-03-29T00:55:23;17.70;61.50
67147;DHT22;70072;52.036;5.558;2024-03-29T00:57:49;17.70;61.60
67147;DHT22;70072;52.036;5.558;2024-03-29T01:00:14;17.70;61.60
67147;DHT22;70072;52.036;5.558;2024-03-29T01:02:40;17.70;61.60
67147;DHT22;70072;52.036;5.558;2024-03-29T01:05:06;17.70;61.60
67147;DHT22;70072;52.036;5.558;2024-03-29T01:07:32;17.60;61.60
67147;DHT22;70072;52.036;5.558;2024-03-29T01:10:00;17.60;61.60
67147;DHT22;70072;52.036;5.558;2024-03-29T01:12:26;17.70;61.60
67147;DHT22;70072;52.036;5.558;2024-03-29T01:14:52;17.70;61.70
67147;DHT22;70072;52.036;5.558;2024-03-29T01:17:18;17.70;61.70
67147;DHT22;70072;52.036;5.558;2024-03-29T01:19:43;17.60;61.60
67147;DHT22;70072;52.036;5.558;2024-03-29T01:22:09;17.60;61.60
67147;DHT22;70072;52.036;5.558;2024-03-29T01:24:35;17.60;61.60
67147;DHT22;70072;52.036;5.558;2024-03-29T01:27:03;17.70;61.70
67147;DHT22;70072;52.036;5.558;2024-03-29T01:29:32;17.60;61.60
67147;DHT22;70072;52.036;5.558;2024-03-29T01:31:58;17.60;61.60
67147;DHT22;70072;52.036;5.558;2024-03-29T01:34:23;17.60;61.60
67147;DHT22;70072;52.036;5.558;2024-03-29T01:36:49;17.60;61.60
67147;DHT22;70072;52.036;5.558;2024-03-29T01:39:15;17.60;61.60
67147;DHT22;70072;52.036;5.558;2024-03-29T01:41:44;17.60;61.60
67147;DHT22;70072;52.036;5.558;2024-03-29T01:44:09;17.60;61.60
67147;DHT22;70072;52.036;5.558;2024-03-29T01:46:36;17.60;61.70
67147;DHT22;70072;52.036;5.558;2024-03-29T01:49:02;17.60;61.70
67147;DHT22;70072;52.036;5.558;2024-03-29T01:51:29;17.60;61.70
67147;DHT22;70072;52.036;5.558;2024-03-29T01:53:56;17.60;61.70
67147;DHT22;70072;52.036;5.558;2024-03-29T01:56:22;17.60;61.60
67147;DHT22;70072;52.036;5.558;2024-03-29T01:58:50;17.60;61.70
67147;DHT22;70072;52.036;5.558;2024-03-29T02:01:19;17.60;61.70
67147;DHT22;70072;52.036;5.558;2024-03-29T02:03:45;17.60;61.70
67147;DHT22;70072;52.036;5.558;2024-03-29T02:06:11;17.60;61.70
67147;DHT22;70072;52.036;5.558;2024-03-29T02:08:39;17.60;61.80
67147;DHT22;70072;52.036;5.558;2024-03-29T02:11:04;17.60;61.70
67147;DHT22;70072;52.036;5.558;2024-03-29T02:13:31;17.60;61.70
67147;DHT22;70072;52.036;5.558;2024-03-29T02:15:57;17.60;61.80
67147;DHT22;70072;52.036;5.558;2024-03-29T02:18:23;17.60;61.70
67147;DHT22;70072;52.036;5.558;2024-03-29T02:20:51;17.60;61.80
67147;DHT22;70072;52.036;5.558;2024-03-29T02:23:26;17.60;62.40
67147;DHT22;70072;52.036;5.558;2024-03-29T02:25:52;17.60;61.80
67147;DHT22;70072;52.036;5.558;2024-03-29T02:28:18;17.60;61.80
67147;DHT22;70072;52.036;5.558;2024-03-29T02:30:43;17.60;61.80
67147;DHT22;70072;52.036;5.558;2024-03-29T02:33:09;17.60;61.80
67147;DHT22;70072;52.036;5.558;2024-03-29T02:35:37;17.60;61.80
67147;DHT22;70072;52.036;5.558;2024-03-29T02:38:02;17.60;61.80
67147;DHT22;70072;52.036;5.558;2024-03-29T02:40:28;17.60;61.80
67147;DHT22;70072;52.036;5.558;2024-03-29T02:42:53;17.60;61.80
67147;DHT22;70072;52.036;5.558;2024-03-29T02:45:20;17.60;61.80
67147;DHT22;70072;52.036;5.558;2024-03-29T02:47:46;17.60;61.80
67147;DHT22;70072;52.036;5.558;2024-03-29T02:50:15;17.50;61.80
67147;DHT22;70072;52.036;5.558;2024-03-29T02:52:40;17.50;61.80
67147;DHT22;70072;52.036;5.558;2024-03-29T02:55:06;17.60;61.80
67147;DHT22;70072;52.036;5.558;2024-03-29T02:57:32;17.50;61.80
67147;DHT22;70072;52.036;5.558;2024-03-29T02:59:58;17.50;61.80
67147;DHT22;70072;52.036;5.558;2024-03-29T03:02:23;17.60;62.50
67147;DHT22;70072;52.036;5.558;2024-03-29T03:04:49;17.50;61.80
67147;DHT22;70072;52.036;5.558;2024-03-29T03:07:17;17.50;61.80
67147;DHT22;70072;52.036;5.558;2024-03-29T03:10:01;17.60;61.90
67147;DHT22;70072;52.036;5.558;2024-03-29T03:12:45;17.60;61.90
67147;DHT22;70072;52.036;5.558;2024-03-29T03:15:11;17.50;61.80
67147;DHT22;70072;52.036;5.558;2024-03-29T03:17:36;17.50;61.80
67147;DHT22;70072;52.036;5.558;2024-03-29T03:20:02;17.50;61.90
67147;DHT22;70072;52.036;5.558;2024-03-29T03:22:32;17.60;61.90
67147;DHT22;70072;52.036;5.558;2024-03-29T03:24:57;17.50;61.80
67147;DHT22;70072;52.036;5.558;2024-03-29T03:27:23;17.50;61.90
67147;DHT22;70072;52.036;5.558;2024-03-29T03:29:49;17.50;61.90
67147;DHT22;70072;52.036;5.558;2024-03-29T03:32:14;17.50;61.90
67147;DHT22;70072;52.036;5.558;2024-03-29T03:34:40;17.50;61.90
67147;DHT22;70072;52.036;5.558;2024-03-29T03:37:10;17.60;61.90
67147;DHT22;70072;52.036;5.558;2024-03-29T03:39:37;17.50;61.90
67147;DHT22;70072;52.036;5.558;2024-03-29T03:42:03;17.50;61.90
67147;DHT22;70072;52.036;5.558;2024-03-29T03:44:29;17.50;61.90
67147;DHT22;70072;52.036;5.558;2024-03-29T03:46:55;17.50;61.90
67147;DHT22;70072;52.036;5.558;2024-03-29T03:49:20;17.50;61.90
67147;DHT22;70072;52.036;5.558;2024-03-29T03:51:46;17.50;61.90
67147;DHT22;70072;52.036;5.558;2024-03-29T03:54:12;17.50;61.90
67147;DHT22;70072;52.036;5.558;2024-03-29T03:56:37;17.50;61.90
67147;DHT22;70072;52.036;5.558;2024-03-29T03:59:03;17.50;61.90
67147;DHT22;70072;52.036;5.558;2024-03-29T04:01:28;17.50;61.90
67147;DHT22;70072;52.036;5.558;2024-03-29T04:03:54;17.50;61.90
67147;DHT22;70072;52.036;5.558;2024-03-29T04:06:20;17.60;62.00
67147;DHT22;70072;52.036;5.558;2024-03-29T04:08:45;17.50;61.90
67147;DHT22;70072;52.036;5.558;2024-03-29T04:11:11;17.50;61.90
67147;DHT22;70072;52.036;5.558;2024-03-29T04:13:37;17.50;61.90
67147;DHT22;70072;52.036;5.558;2024-03-29T04:16:05;17.50;61.90
67147;DHT22;70072;52.036;5.558;2024-03-29T04:18:32;17.50;61.90
67147;DHT22;70072;52.036;5.558;2024-03-29T04:20:59;17.50;61.90
67147;DHT22;70072;52.036;5.558;2024-03-29T04:23:25;17.50;61.90
67147;DHT22;70072;52.036;5.558;2024-03-29T04:25:52;17.50;61.90
67147;DHT22;70072;52.036;5.558;2024-03-29T04:28:18;17.50;62.00
67147;DHT22;70072;52.036;5.558;2024-03-29T04:30:57;17.50;61.90
67147;DHT22;70072;52.036;5.558;2024-03-29T04:33:23;17.50;62.00
67147;DHT22;70072;52.036;5.558;2024-03-29T04:36:01;17.50;62.00
67147;DHT22;70072;52.036;5.558;2024-03-29T04:38:27;17.50;62.00
67147;DHT22;70072;52.036;5.558;2024-03-29T04:40:55;17.50;62.00
67147;DHT22;70072;52.036;5.558;2024-03-29T04:43:23;17.50;62.00
67147;DHT22;70072;52.036;5.558;2024-03-29T04:45:49;17.50;62.00
67147;DHT22;70072;52.036;5.558;2024-03-29T04:48:15;17.50;62.00
67147;DHT22;70072;52.036;5.558;2024-03-29T04:50:41;17.50;62.00
67147;DHT22;70072;52.036;5.558;2024-03-29T04:53:08;17.50;62.00
67147;DHT22;70072;52.036;5.558;2024-03-29T04:55:34;17.50;62.00
67147;DHT22;70072;52.036;5.558;2024-03-29T04:58:00;17.50;62.00
67147;DHT22;70072;52.036;5.558;2024-03-29T05:00:26;17.50;62.00
67147;DHT22;70072;52.036;5.558;2024-03-29T05:02:51;17.50;62.00
67147;DHT22;70072;52.036;5.558;2024-03-29T05:05:17;17.50;62.00
67147;DHT22;70072;52.036;5.558;2024-03-29T05:07:43;17.50;62.00
67147;DHT22;70072;52.036;5.558;2024-03-29T05:10:09;17.50;62.10
67147;DHT22;70072;52.036;5.558;2024-03-29T05:12:38;17.50;62.10
67147;DHT22;70072;52.036;5.558;2024-03-29T05:15:04;17.50;62.10
67147;DHT22;70072;52.036;5.558;2024-03-29T05:17:29;17.50;62.10
67147;DHT22;70072;52.036;5.558;2024-03-29T05:19:55;17.50;62.10
67147;DHT22;70072;52.036;5.558;2024-03-29T05:22:22;17.50;62.10
67147;DHT22;70072;52.036;5.558;2024-03-29T05:24:47;17.50;62.10
67147;DHT22;70072;52.036;5.558;2024-03-29T05:27:13;17.50;62.20
67147;DHT22;70072;52.036;5.558;2024-03-29T05:29:39;17.50;62.10
67147;DHT22;70072;52.036;5.558;2024-03-29T05:32:06;17.50;62.10
67147;DHT22;70072;52.036;5.558;2024-03-29T05:34:32;17.50;62.20
67147;DHT22;70072;52.036;5.558;2024-03-29T05:36:57;17.50;62.20
67147;DHT22;70072;52.036;5.558;2024-03-29T05:39:25;17.50;62.20
67147;DHT22;70072;52.036;5.558;2024-03-29T05:41:51;17.50;62.20
67147;DHT22;70072;52.036;5.558;2024-03-29T05:44:16;17.50;62.20
67147;DHT22;70072;52.036;5.558;2024-03-29T05:46:42;17.50;62.20
67147;DHT22;70072;52.036;5.558;2024-03-29T05:49:08;17.50;62.20
67147;DHT22;70072;52.036;5.558;2024-03-29T05:51:34;17.50;62.30
67147;DHT22;70072;52.036;5.558;2024-03-29T05:54:00;17.50;62.30
67147;DHT22;70072;52.036;5.558;2024-03-29T05:56:25;17.50;62.30
67147;DHT22;70072;52.036;5.558;2024-03-29T05:58:51;17.50;62.30
67147;DHT22;70072;52.036;5.558;2024-03-29T06:01:17;17.50;62.30
67147;DHT22;70072;52.036;5.558;2024-03-29T06:03:42;17.50;62.30
67147;DHT22;70072;52.036;5.558;2024-03-29T06:06:08;17.50;62.30
67147;DHT22;70072;52.036;5.558;2024-03-29T06:08:37;17.50;62.30
67147;DHT22;70072;52.036;5.558;2024-03-29T06:11:05;17.50;62.30
67147;DHT22;70072;52.036;5.558;2024-03-29T06:13:30;17.50;62.30
67147;DHT22;70072;52.036;5.558;2024-03-29T06:16:14;17.50;62.40
67147;DHT22;70072;52.036;5.558;2024-03-29T06:18:58;17.50;62.40
67147;DHT22;70072;52.036;5.558;2024-03-29T06:21:24;17.50;62.30
67147;DHT22;70072;52.036;5.558;2024-03-29T06:23:50;17.50;62.40
67147;DHT22;70072;52.036;5.558;2024-03-29T06:26:15;17.50;62.40
67147;DHT22;70072;52.036;5.558;2024-03-29T06:28:41;17.50;62.40
67147;DHT22;70072;52.036;5.558;2024-03-29T06:31:06;17.50;62.40
67147;DHT22;70072;52.036;5.558;2024-03-29T06:33:32;17.50;62.40
67147;DHT22;70072;52.036;5.558;2024-03-29T06:35:57;17.50;62.40
67147;DHT22;70072;52.036;5.558;2024-03-29T06:38:23;17.50;62.50
67147;DHT22;70072;52.036;5.558;2024-03-29T06:40:49;17.50;63.10
67147;DHT22;70072;52.036;5.558;2024-03-29T06:43:17;17.60;62.50
67147;DHT22;70072;52.036;5.558;2024-03-29T06:45:42;17.50;62.50
67147;DHT22;70072;52.036;5.558;2024-03-29T06:48:08;17.50;62.50
67147;DHT22;70072;52.036;5.558;2024-03-29T06:50:34;17.60;62.50
67147;DHT22;70072;52.036;5.558;2024-03-29T06:53:00;17.50;62.50
67147;DHT22;70072;52.036;5.558;2024-03-29T06:55:26;17.60;62.60
67147;DHT22;70072;52.036;5.558;2024-03-29T06:57:51;17.50;62.50
67147;DHT22;70072;52.036;5.558;2024-03-29T07:00:17;17.50;62.50
67147;DHT22;70072;52.036;5.558;2024-03-29T07:02:43;17.50;62.50
67147;DHT22;70072;52.036;5.558;2024-03-29T07:05:09;17.50;62.50
67147;DHT22;70072;52.036;5.558;2024-03-29T07:07:37;17.50;62.50
67147;DHT22;70072;52.036;5.558;2024-03-29T07:10:03;17.50;62.50
67147;DHT22;70072;52.036;5.558;2024-03-29T07:12:29;17.50;62.60
67147;DHT22;70072;52.036;5.558;2024-03-29T07:14:54;17.60;62.60
67147;DHT22;70072;52.036;5.558;2024-03-29T07:17:20;17.50;62.60
67147;DHT22;70072;52.036;5.558;2024-03-29T07:19:45;17.50;62.60
67147;DHT22;70072;52.036;5.558;2024-03-29T07:22:11;17.50;62.60
67147;DHT22;70072;52.036;5.558;2024-03-29T07:24:40;17.50;62.60
67147;DHT22;70072;52.036;5.558;2024-03-29T07:27:06;17.60;62.70
67147;DHT22;70072;52.036;5.558;2024-03-29T07:29:31;17.60;62.70
67147;DHT22;70072;52.036;5.558;2024-03-29T07:31:59;17.60;62.70
67147;DHT22;70072;52.036;5.558;2024-03-29T07:34:25;17.60;62.70
67147;DHT22;70072;52.036;5.558;2024-03-29T07:36:51;17.50;62.60
67147;DHT22;70072;52.036;5.558;2024-03-29T07:39:17;17.60;62.70
67147;DHT22;70072;52.036;5.558;2024-03-29T07:41:42;17.60;62.70
67147;DHT22;70072;52.036;5.558;2024-03-29T07:44:08;17.60;62.80
67147;DHT22;70072;52.036;5.558;2024-03-29T07:46:35;17.60;62.80
67147;DHT22;70072;52.036;5.558;2024-03-29T07:49:02;17.60;62.80
67147;DHT22;70072;52.036;5.558;2024-03-29T07:51:29;17.60;62.80
67147;DHT22;70072;52.036;5.558;2024-03-29T07:53:54;17.60;62.70
67147;DHT22;70072;52.036;5.558;2024-03-29T07:56:20;17.60;62.80
67147;DHT22;70072;52.036;5.558;2024-03-29T07:58:53;17.60;62.80
67147;DHT22;70072;52.036;5.558;2024-03-29T08:01:20;17.60;62.80
67147;DHT22;70072;52.036;5.558;2024-03-29T08:03:46;17.60;62.80
67147;DHT22;70072;52.036;5.558;2024-03-29T08:06:14;17.60;62.80
67147;DHT22;70072;52.036;5.558;2024-03-29T08:08:42;17.60;62.80
67147;DHT22;70072;52.036;5.558;2024-03-29T08:11:08;17.60;62.80
67147;DHT22;70072;52.036;5.558;2024-03-29T08:13:35;17.60;62.80
67147;DHT22;70072;52.036;5.558;2024-03-29T08:16:01;17.60;62.80
67147;DHT22;70072;52.036;5.558;2024-03-29T08:18:28;17.70;62.90
67147;DHT22;70072;52.036;5.558;2024-03-29T08:20:54;17.60;62.80
67147;DHT22;70072;52.036;5.558;2024-03-29T08:23:21;17.60;62.80
67147;DHT22;70072;52.036;5.558;2024-03-29T08:25:49;17.60;62.90
67147;DHT22;70072;52.036;5.558;2024-03-29T08:28:19;17.60;62.80
67147;DHT22;70072;52.036;5.558;2024-03-29T08:30:45;17.70;62.90
67147;DHT22;70072;52.036;5.558;2024-03-29T08:33:11;17.70;62.90
67147;DHT22;70072;52.036;5.558;2024-03-29T08:35:37;17.70;62.90
67147;DHT22;70072;52.036;5.558;2024-03-29T08:38:04;17.70;62.90
67147;DHT22;70072;52.036;5.558;2024-03-29T08:40:30;17.70;62.90
67147;DHT22;70072;52.036;5.558;2024-03-29T08:42:57;17.60;62.90
67147;DHT22;70072;52.036;5.558;2024-03-29T08:45:23;17.70;63.00
67147;DHT22;70072;52.036;5.558;2024-03-29T08:47:49;17.70;62.90
67147;DHT22;70072;52.036;5.558;2024-03-29T08:50:15;17.70;63.00
67147;DHT22;70072;52.036;5.558;2024-03-29T08:52:41;17.70;62.90
67147;DHT22;70072;52.036;5.558;2024-03-29T08:55:07;17.70;63.00
67147;DHT22;70072;52.036;5.558;2024-03-29T08:57:33;17.70;63.00
67147;DHT22;70072;52.036;5.558;2024-03-29T08:59:59;17.80;63.00
67147;DHT22;70072;52.036;5.558;2024-03-29T09:02:25;17.80;63.10
67147;DHT22;70072;52.036;5.558;2024-03-29T09:04:51;17.70;63.00
67147;DHT22;70072;52.036;5.558;2024-03-29T09:07:16;17.80;63.10
67147;DHT22;70072;52.036;5.558;2024-03-29T09:09:42;17.80;63.10
67147;DHT22;70072;52.036;5.558;2024-03-29T09:12:08;17.80;63.10
67147;DHT22;70072;52.036;5.558;2024-03-29T09:14:34;17.80;63.10
67147;DHT22;70072;52.036;5.558;2024-03-29T09:17:00;17.80;63.10
67147;DHT22;70072;52.036;5.558;2024-03-29T09:19:27;17.80;63.10
67147;DHT22;70072;52.036;5.558;2024-03-29T09:21:55;17.80;63.10
67147;DHT22;70072;52.036;5.558;2024-03-29T09:24:23;17.80;63.10
67147;DHT22;70072;52.036;5.558;2024-03-29T09:26:51;17.80;63.80
67147;DHT22;70072;52.036;5.558;2024-03-29T09:29:17;17.80;63.20
67147;DHT22;70072;52.036;5.558;2024-03-29T09:31:45;17.80;63.20
67147;DHT22;70072;52.036;5.558;2024-03-29T09:34:12;17.80;63.20
67147;DHT22;70072;52.036;5.558;2024-03-29T09:36:37;17.80;63.20
67147;DHT22;70072;52.036;5.558;2024-03-29T09:39:03;17.90;63.20
67147;DHT22;70072;52.036;5.558;2024-03-29T09:41:31;17.90;63.20
67147;DHT22;70072;52.036;5.558;2024-03-29T09:44:02;17.90;63.20
67147;DHT22;70072;52.036;5.558;2024-03-29T09:46:29;17.90;63.20
67147;DHT22;70072;52.036;5.558;2024-03-29T09:48:55;17.90;63.30
67147;DHT22;70072;52.036;5.558;2024-03-29T09:51:21;17.90;63.20
67147;DHT22;70072;52.036;5.558;2024-03-29T09:53:48;17.90;63.20
67147;DHT22;70072;52.036;5.558;2024-03-29T09:56:15;18.00;63.30
67147;DHT22;70072;52.036;5.558;2024-03-29T09:58:40;18.00;63.30
67147;DHT22;70072;52.036;5.558;2024-03-29T10:01:07;18.00;63.30
67147;DHT22;70072;52.036;5.558;2024-03-29T10:03:40;18.00;63.30
67147;DHT22;70072;52.036;5.558;2024-03-29T10:06:06;18.00;63.30
67147;DHT22;70072;52.036;5.558;2024-03-29T10:08:33;18.00;63.30
67147;DHT22;70072;52.036;5.558;2024-03-29T10:10:59;18.00;63.30
67147;DHT22;70072;52.036;5.558;2024-03-29T10:13:25;18.00;63.30
67147;DHT22;70072;52.036;5.558;2024-03-29T10:15:51;18.00;63.30
67147;DHT22;70072;52.036;5.558;2024-03-29T10:18:19;18.00;63.30
67147;DHT22;70072;52.036;5.558;2024-03-29T10:20:45;18.00;63.30
67147;DHT22;70072;52.036;5.558;2024-03-29T10:23:11;18.00;63.30
67147;DHT22;70072;52.036;5.558;2024-03-29T10:25:37;18.00;63.40
67147;DHT22;70072;52.036;5.558;2024-03-29T10:28:03;18.00;63.40
67147;DHT22;70072;52.036;5.558;2024-03-29T10:30:29;18.10;63.40
67147;DHT22;70072;52.036;5.558;2024-03-29T10:32:56;18.10;63.40
67147;DHT22;70072;52.036;5.558;2024-03-29T10:35:22;18.10;63.40
67147;DHT22;70072;52.036;5.558;2024-03-29T10:37:47;18.10;63.50
67147;DHT22;70072;52.036;5.558;2024-03-29T10:40:13;18.10;63.50
67147;DHT22;70072;52.036;5.558;2024-03-29T10:42:43;18.10;63.50
67147;DHT22;70072;52.036;5.558;2024-03-29T10:45:10;18.10;63.50
67147;DHT22;70072;52.036;5.558;2024-03-29T10:47:36;18.10;63.50
67147;DHT22;70072;52.036;5.558;2024-03-29T10:50:02;18.10;63.60
67147;DHT22;70072;52.036;5.558;2024-03-29T10:52:30;18.10;63.50
67147;DHT22;70072;52.036;5.558;2024-03-29T10:54:56;18.10;63.60
67147;DHT22;70072;52.036;5.558;2024-03-29T10:57:26;18.10;63.60
67147;DHT22;70072;52.036;5.558;2024-03-29T11:00:01;18.10;63.60
67147;DHT22;70072;52.036;5.558;2024-03-29T11:02:48;18.10;63.60
67147;DHT22;70072;52.036;5.558;2024-03-29T11:05:17;18.20;63.60
67147;DHT22;70072;52.036;5.558;2024-03-29T11:07:44;18.20;63.60
67147;DHT22;70072;52.036;5.558;2024-03-29T11:10:31;18.20;63.60
67147;DHT22;70072;52.036;5.558;2024-03-29T11:15:37;18.20;63.60
67147;DHT22;70072;52.036;5.558;2024-03-29T11:18:03;18.20;63.60
67147;DHT22;70072;52.036;5.558;2024-03-29T11:20:30;18.30;63.60
67147;DHT22;70072;52.036;5.558;2024-03-29T11:23:26;18.20;63.50
67147;DHT22;70072;52.036;5.558;2024-03-29T11:25:55;18.20;63.60
67147;DHT22;70072;52.036;5.558;2024-03-29T11:28:30;18.30;63.60
67147;DHT22;70072;52.036;5.558;2024-03-29T11:31:03;18.30;63.60
67147;DHT22;70072;52.036;5.558;2024-03-29T11:36:00;18.30;63.60
67147;DHT22;70072;52.036;5.558;2024-03-29T11:38:35;18.30;63.60
67147;DHT22;70072;52.036;5.558;2024-03-29T11:41:02;18.30;64.30
67147;DHT22;70072;52.036;5.558;2024-03-29T11:43:29;18.30;63.60
67147;DHT22;70072;52.036;5.558;2024-03-29T11:45:58;18.30;63.60
67147;DHT22;70072;52.036;5.558;2024-03-29T11:48:29;18.30;63.60
67147;DHT22;70072;52.036;5.558;2024-03-29T11:50:57;18.30;63.60
67147;DHT22;70072;52.036;5.558;2024-03-29T11:53:22;18.30;63.60
67147;DHT22;70072;52.036;5.558;2024-03-29T11:55:50;18.30;63.60
67147;DHT22;70072;52.036;5.558;2024-03-29T11:58:23;18.30;63.60
67147;DHT22;70072;52.036;5.558;2024-03-29T12:00:49;18.40;63.70
67147;DHT22;70072;52.036;5.558;2024-03-29T12:03:16;18.40;63.70
67147;DHT22;70072;52.036;5.558;2024-03-29T12:05:43;18.40;63.70
67147;DHT22;70072;52.036;5.558;2024-03-29T12:08:09;18.40;63.60
67147;DHT22;70072;52.036;5.558;2024-03-29T12:10:35;18.40;63.60
67147;DHT22;70072;52.036;5.558;2024-03-29T12:13:02;18.40;63.60
67147;DHT22;70072;52.036;5.558;2024-03-29T12:15:28;18.40;63.60
67147;DHT22;70072;52.036;5.558;2024-03-29T12:18:04;18.50;63.70
67147;DHT22;70072;52.036;5.558;2024-03-29T12:20:35;18.40;63.60
67147;DHT22;70072;52.036;5.558;2024-03-29T12:23:05;18.50;63.70
67147;DHT22;70072;52.036;5.558;2024-03-29T12:25:36;18.50;63.70
67147;DHT22;70072;52.036;5.558;2024-03-29T12:28:02;18.50;63.60
67147;DHT22;70072;52.036;5.558;2024-03-29T12:30:28;18.50;63.70
67147;DHT22;70072;52.036;5.558;2024-03-29T12:33:02;18.50;63.70
67147;DHT22;70072;52.036;5.558;2024-03-29T12:35:28;18.50;63.70
67147;DHT22;70072;52.036;5.558;2024-03-29T12:37:58;18.50;63.60
67147;DHT22;70072;52.036;5.558;2024-03-29T12:40:25;18.60;63.60
67147;DHT22;70072;52.036;5.558;2024-03-29T12:42:52;18.60;63.60
67147;DHT22;70072;52.036;5.558;2024-03-29T12:45:18;18.60;63.60
67147;DHT22;70072;52.036;5.558;2024-03-29T12:47:45;18.60;63.60
67147;DHT22;70072;52.036;5.558;2024-03-29T12:50:13;18.60;63.50
67147;DHT22;70072;52.036;5.558;2024-03-29T12:52:41;18.60;63.50
67147;DHT22;70072;52.036;5.558;2024-03-29T12:55:07;18.60;63.50
67147;DHT22;70072;52.036;5.558;2024-03-29T12:57:34;18.60;63.50
67147;DHT22;70072;52.036;5.558;2024-03-29T13:00:00;18.70;63.60
67147;DHT22;70072;52.036;5.558;2024-03-29T13:02:26;18.70;63.60
67147;DHT22;70072;52.036;5.558;2024-03-29T13:04:52;18.70;63.60
67147;DHT22;70072;52.036;5.558;2024-03-29T13:07:17;18.70;63.60
67147;DHT22;70072;52.036;5.558;2024-03-29T13:09:43;18.80;63.60
67147;DHT22;70072;52.036;5.558;2024-03-29T13:12:09;18.80;64.20
67147;DHT22;70072;52.036;5.558;2024-03-29T13:14:34;18.80;64.20
67147;DHT22;70072;52.036;5.558;2024-03-29T13:17:00;18.80;63.60
67147;DHT22;70072;52.036;5.558;2024-03-29T13:19:25;18.80;63.70
67147;DHT22;70072;52.036;5.558;2024-03-29T13:21:51;18.80;63.70
67147;DHT22;70072;52.036;5.558;2024-03-29T13:24:17;18.80;63.70
67147;DHT22;70072;52.036;5.558;2024-03-29T13:26:43;18.80;63.70
67147;DHT22;70072;52.036;5.558;2024-03-29T13:29:09;18.80;63.70
67147;DHT22;70072;52.036;5.558;2024-03-29T13:31:38;18.80;63.70
67147;DHT22;70072;52.036;5.558;2024-03-29T13:34:04;18.90;63.80
67147;DHT22;70072;52.036;5.558;2024-03-29T13:36:38;18.90;63.70
67147;DHT22;70072;52.036;5.558;2024-03-29T13:39:04;18.90;63.70
67147;DHT22;70072;52.036;5.558;2024-03-29T13:41:30;18.90;63.70
67147;DHT22;70072;52.036;5.558;2024-03-29T13:43:56;18.90;63.70
67147;DHT22;70072;52.036;5.558;2024-03-29T13:46:22;18.90;63.60
67147;DHT22;70072;52.036;5.558;2024-03-29T13:48:49;18.90;63.60
67147;DHT22;70072;52.036;5.558;2024-03-29T13:51:15;19.00;63.60
67147;DHT22;70072;52.036;5.558;2024-03-29T13:53:42;19.00;63.60
67147;DHT22;70072;52.036;5.558;2024-03-29T13:56:07;19.00;63.50
67147;DHT22;70072;52.036;5.558;2024-03-29T13:58:33;19.00;63.50
67147;DHT22;70072;52.036;5.558;2024-03-29T14:00:59;19.00;63.40
67147;DHT22;70072;52.036;5.558;2024-03-29T14:03:26;19.00;63.40
67147;DHT22;70072;52.036;5.558;2024-03-29T14:05:52;19.00;63.40
67147;DHT22;70072;52.036;5.558;2024-03-29T14:08:17;19.00;64.00
67147;DHT22;70072;52.036;5.558;2024-03-29T14:10:43;19.00;63.30
67147;DHT22;70072;52.036;5.558;2024-03-29T14:13:11;19.00;63.30
67147;DHT22;70072;52.036;5.558;2024-03-29T14:15:36;19.10;63.30
67147;DHT22;70072;52.036;5.558;2024-03-29T14:18:02;19.10;63.30
67147;DHT22;70072;52.036;5.558;2024-03-29T14:20:28;19.00;63.20
67147;DHT22;70072;52.036;5.558;2024-03-29T14:22:54;19.00;63.10
67147;DHT22;70072;52.036;5.558;2024-03-29T14:25:25;19.10;63.20
67147;DHT22;70072;52.036;5.558;2024-03-29T14:27:53;19.10;63.10
67147;DHT22;70072;52.036;5.558;2024-03-29T14:30:23;19.00;63.10
67147;DHT22;70072;52.036;5.558;2024-03-29T14:32:51;19.10;63.00
67147;DHT22;70072;52.036;5.558;2024-03-29T14:35:19;19.10;63.00
67147;DHT22;70072;52.036;5.558;2024-03-29T14:37:49;19.10;63.00
67147;DHT22;70072;52.036;5.558;2024-03-29T14:40:15;19.10;62.90
67147;DHT22;70072;52.036;5.558;2024-03-29T14:42:41;19.10;62.90
67147;DHT22;70072;52.036;5.558;2024-03-29T14:45:10;19.10;62.80
67147;DHT22;70072;52.036;5.558;2024-03-29T14:47:41;19.20;62.80
67147;DHT22;70072;52.036;5.558;2024-03-29T14:50:09;19.20;62.70
67147;DHT22;70072;52.036;5.558;2024-03-29T14:52:35;19.20;62.60
67147;DHT22;70072;52.036;5.558;2024-03-29T14:55:01;19.20;62.60
67147;DHT22;70072;52.036;5.558;2024-03-29T14:57:31;19.20;62.60
67147;DHT22;70072;52.036;5.558;2024-03-29T14:59:58;19.20;62.50
67147;DHT22;70072;52.036;5.558;2024-03-29T15:02:24;19.20;62.50
67147;DHT22;70072;52.036;5.558;2024-03-29T15:04:52;19.20;62.50
67147;DHT22;70072;52.036;5.558;2024-03-29T15:07:19;19.20;62.50
67147;DHT22;70072;52.036;5.558;2024-03-29T15:09:44;19.20;62.40
67147;DHT22;70072;52.036;5.558;2024-03-29T15:12:10;19.20;62.50
67147;DHT22;70072;52.036;5.558;2024-03-29T15:14:35;19.20;62.40
67147;DHT22;70072;52.036;5.558;2024-03-29T15:17:02;19.20;62.40
67147;DHT22;70072;52.036;5.558;2024-03-29T15:19:28;19.20;62.40
67147;DHT22;70072;52.036;5.558;2024-03-29T15:21:54;19.20;62.30
67147;DHT22;70072;52.036;5.558;2024-03-29T15:24:21;19.20;62.30
67147;DHT22;70072;52.036;5.558;2024-03-29T15:26:47;19.30;62.40
67147;DHT22;70072;52.036;5.558;2024-03-29T15:29:15;19.30;62.40
67147;DHT22;70072;52.036;5.558;2024-03-29T15:31:42;19.30;62.30
67147;DHT22;70072;52.036;5.558;2024-03-29T15:34:13;19.30;62.20